Agawam, Massachusetts
Current Conditions -  °F | °C
As of 1:53 PM on Saturday 25 Oct 2014 (Local Time) from KBAF Reporting Station
Scattered Clouds Scattered Clouds  
Wind Chill: 66°   Ceiling: Unl
Heat Index: 66°   Visibility: 10mi
Dew Point: 43°   Wind: 14mph
Humidity: 43%   Direction: 270°W
Pressure: 29.66"   Gusts: NA
Location:  42.07°N, 72.61°W
Report Text: KBAF 251753Z 27012KT 10SM SCT046 19/06 A2966 RMK AO2 SLP045 T01890061 10189 20061 58035
Loading
Personal Weather Stations






























Interactive Weather Map New forecast layout! Learn more

10-Day Weather Forecast

Advertisements
Track Severe Weather on mobile